<?xml version="1.0" encoding="UTF-8" standalone="no" ?>
<gpx xmlns="http://www.topografix.com/GPX/1/1" xmlns:xsi="http://www.w3.org/2001/XMLSchema-instance" xsi:schemaLocation="http://www.topografix.com/GPX/1/1 http://www.topografix.com/GPX/1/1/gpx.xsd" version="1.1" creator="VisuGPX - https://www.visugpx.com">
  <metadata>
    <name>randonnée PO FRANCE</name>
    <desc><![CDATA[randonnée pyrènées orientales niveau moyen]]></desc>
  </metadata>
  <trk>
    <name><![CDATA[OR-3951042--Soldeu:Refuge du Ruhle et la crête des Izards]]></name>
    <trkseg>
      <trkpt lat="42.63814" lon="1.72601">
        <ele>2209</ele>
        <time>2017-04-13T14:19:20Z</time>
      </trkpt>
      <trkpt lat="42.63828" lon="1.72607">
        <ele>2210</ele>
        <time>2017-04-13T14:21:20Z</time>
      </trkpt>
      <trkpt lat="42.63846" lon="1.72619">
        <ele>2211</ele>
        <time>2017-04-13T14:23:20Z</time>
      </trkpt>
      <trkpt lat="42.63873" lon="1.72643">
        <ele>2213</ele>
        <time>2017-04-13T14:25:20Z</time>
      </trkpt>
      <trkpt lat="42.63882" lon="1.72662">
        <ele>2215</ele>
        <time>2017-04-13T14:27:20Z</time>
      </trkpt>
      <trkpt lat="42.63896" lon="1.72674">
        <ele>2216</ele>
        <time>2017-04-13T14:29:20Z</time>
      </trkpt>
      <trkpt lat="42.63905" lon="1.72698">
        <ele>2219</ele>
        <time>2017-04-13T14:31:20Z</time>
      </trkpt>
      <trkpt lat="42.63914" lon="1.72728">
        <ele>2222</ele>
        <time>2017-04-13T14:33:20Z</time>
      </trkpt>
      <trkpt lat="42.63919" lon="1.72752">
        <ele>2226</ele>
        <time>2017-04-13T14:35:20Z</time>
      </trkpt>
      <trkpt lat="42.63919" lon="1.7285">
        <ele>2238</ele>
        <time>2017-04-13T14:37:20Z</time>
      </trkpt>
      <trkpt lat="42.63915" lon="1.72868">
        <ele>2240</ele>
        <time>2017-04-13T14:39:20Z</time>
      </trkpt>
      <trkpt lat="42.63915" lon="1.72917">
        <ele>2245</ele>
        <time>2017-04-13T14:41:20Z</time>
      </trkpt>
      <trkpt lat="42.6392" lon="1.72935">
        <ele>2248</ele>
        <time>2017-04-13T14:43:20Z</time>
      </trkpt>
      <trkpt lat="42.63924" lon="1.72959">
        <ele>2251</ele>
        <time>2017-04-13T14:45:20Z</time>
      </trkpt>
      <trkpt lat="42.63942" lon="1.72995">
        <ele>2257</ele>
        <time>2017-04-13T14:47:20Z</time>
      </trkpt>
      <trkpt lat="42.63956" lon="1.73007">
        <ele>2260</ele>
        <time>2017-04-13T14:49:20Z</time>
      </trkpt>
      <trkpt lat="42.6397" lon="1.73025">
        <ele>2264</ele>
        <time>2017-04-13T14:51:20Z</time>
      </trkpt>
      <trkpt lat="42.63979" lon="1.7305">
        <ele>2270</ele>
        <time>2017-04-13T14:53:20Z</time>
      </trkpt>
      <trkpt lat="42.63988" lon="1.73068">
        <ele>2274</ele>
        <time>2017-04-13T14:55:20Z</time>
      </trkpt>
      <trkpt lat="42.63997" lon="1.73092">
        <ele>2279</ele>
        <time>2017-04-13T14:57:20Z</time>
      </trkpt>
      <trkpt lat="42.6401" lon="1.7311">
        <ele>2283</ele>
        <time>2017-04-13T14:59:20Z</time>
      </trkpt>
      <trkpt lat="42.64029" lon="1.73147">
        <ele>2291</ele>
        <time>2017-04-13T15:01:20Z</time>
      </trkpt>
      <trkpt lat="42.64056" lon="1.73171">
        <ele>2298</ele>
        <time>2017-04-13T15:03:20Z</time>
      </trkpt>
      <trkpt lat="42.64083" lon="1.73207">
        <ele>2311</ele>
        <time>2017-04-13T15:05:20Z</time>
      </trkpt>
      <trkpt lat="42.64096" lon="1.73219">
        <ele>2316</ele>
        <time>2017-04-13T15:07:20Z</time>
      </trkpt>
      <trkpt lat="42.6411" lon="1.73237">
        <ele>2321</ele>
        <time>2017-04-13T15:09:20Z</time>
      </trkpt>
      <trkpt lat="42.64124" lon="1.73249">
        <ele>2323</ele>
        <time>2017-04-13T15:11:20Z</time>
      </trkpt>
      <trkpt lat="42.64258" lon="1.73248">
        <ele>2297</ele>
        <time>2017-04-13T15:13:20Z</time>
      </trkpt>
      <trkpt lat="42.64276" lon="1.73259">
        <ele>2292</ele>
        <time>2017-04-13T15:15:20Z</time>
      </trkpt>
      <trkpt lat="42.6429" lon="1.73272">
        <ele>2287</ele>
        <time>2017-04-13T15:17:20Z</time>
      </trkpt>
      <trkpt lat="42.64299" lon="1.73308">
        <ele>2281</ele>
        <time>2017-04-13T15:19:20Z</time>
      </trkpt>
      <trkpt lat="42.64304" lon="1.73332">
        <ele>2276</ele>
        <time>2017-04-13T15:21:20Z</time>
      </trkpt>
      <trkpt lat="42.64304" lon="1.73429">
        <ele>2277</ele>
        <time>2017-04-13T15:23:20Z</time>
      </trkpt>
      <trkpt lat="42.64313" lon="1.7349">
        <ele>2278</ele>
        <time>2017-04-13T15:25:20Z</time>
      </trkpt>
      <trkpt lat="42.64327" lon="1.73502">
        <ele>2271</ele>
        <time>2017-04-13T15:27:20Z</time>
      </trkpt>
      <trkpt lat="42.64341" lon="1.73508">
        <ele>2267</ele>
        <time>2017-04-13T15:29:20Z</time>
      </trkpt>
      <trkpt lat="42.64354" lon="1.73538">
        <ele>2273</ele>
        <time>2017-04-13T15:31:20Z</time>
      </trkpt>
      <trkpt lat="42.64359" lon="1.73557">
        <ele>2277</ele>
        <time>2017-04-13T15:33:20Z</time>
      </trkpt>
      <trkpt lat="42.64368" lon="1.73581">
        <ele>2282</ele>
        <time>2017-04-13T15:35:20Z</time>
      </trkpt>
      <trkpt lat="42.64381" lon="1.73605">
        <ele>2286</ele>
        <time>2017-04-13T15:37:20Z</time>
      </trkpt>
      <trkpt lat="42.644" lon="1.73623">
        <ele>2286</ele>
        <time>2017-04-13T15:39:20Z</time>
      </trkpt>
      <trkpt lat="42.6444" lon="1.73659">
        <ele>2284</ele>
        <time>2017-04-13T15:41:20Z</time>
      </trkpt>
      <trkpt lat="42.64458" lon="1.73671">
        <ele>2280</ele>
        <time>2017-04-13T15:43:20Z</time>
      </trkpt>
      <trkpt lat="42.64535" lon="1.7367">
        <ele>2260</ele>
        <time>2017-04-13T15:45:20Z</time>
      </trkpt>
      <trkpt lat="42.64552" lon="1.73658">
        <ele>2259</ele>
        <time>2017-04-13T15:47:20Z</time>
      </trkpt>
      <trkpt lat="42.6457" lon="1.73652">
        <ele>2259</ele>
        <time>2017-04-13T15:49:20Z</time>
      </trkpt>
      <trkpt lat="42.64647" lon="1.73651">
        <ele>2271</ele>
        <time>2017-04-13T15:51:20Z</time>
      </trkpt>
      <trkpt lat="42.6466" lon="1.73663">
        <ele>2273</ele>
        <time>2017-04-13T15:53:20Z</time>
      </trkpt>
      <trkpt lat="42.64674" lon="1.73681">
        <ele>2271</ele>
        <time>2017-04-13T15:55:20Z</time>
      </trkpt>
      <trkpt lat="42.64683" lon="1.73705">
        <ele>2267</ele>
        <time>2017-04-13T15:57:20Z</time>
      </trkpt>
      <trkpt lat="42.64714" lon="1.73735">
        <ele>2272</ele>
        <time>2017-04-13T15:59:20Z</time>
      </trkpt>
      <trkpt lat="42.64724" lon="1.73754">
        <ele>2275</ele>
        <time>2017-04-13T16:01:20Z</time>
      </trkpt>
      <trkpt lat="42.64751" lon="1.7379">
        <ele>2279</ele>
        <time>2017-04-13T16:03:20Z</time>
      </trkpt>
      <trkpt lat="42.64769" lon="1.73802">
        <ele>2282</ele>
        <time>2017-04-13T16:05:20Z</time>
      </trkpt>
      <trkpt lat="42.64818" lon="1.7385">
        <ele>2290</ele>
        <time>2017-04-13T16:07:20Z</time>
      </trkpt>
      <trkpt lat="42.64836" lon="1.73862">
        <ele>2292</ele>
        <time>2017-04-13T16:09:20Z</time>
      </trkpt>
      <trkpt lat="42.64881" lon="1.73886">
        <ele>2300</ele>
        <time>2017-04-13T16:11:20Z</time>
      </trkpt>
      <trkpt lat="42.64899" lon="1.73898">
        <ele>2304</ele>
        <time>2017-04-13T16:13:20Z</time>
      </trkpt>
      <trkpt lat="42.64935" lon="1.7391">
        <ele>2319</ele>
        <time>2017-04-13T16:15:20Z</time>
      </trkpt>
      <trkpt lat="42.64967" lon="1.7394">
        <ele>2325</ele>
        <time>2017-04-13T16:17:20Z</time>
      </trkpt>
      <trkpt lat="42.64994" lon="1.73952">
        <ele>2335</ele>
        <time>2017-04-13T16:19:20Z</time>
      </trkpt>
      <trkpt lat="42.65008" lon="1.73964">
        <ele>2336</ele>
        <time>2017-04-13T16:21:20Z</time>
      </trkpt>
      <trkpt lat="42.65026" lon="1.73976">
        <ele>2337</ele>
        <time>2017-04-13T16:23:20Z</time>
      </trkpt>
      <trkpt lat="42.65039" lon="1.74">
        <ele>2336</ele>
        <time>2017-04-13T16:25:20Z</time>
      </trkpt>
      <trkpt lat="42.65048" lon="1.74018">
        <ele>2334</ele>
        <time>2017-04-13T16:27:20Z</time>
      </trkpt>
      <trkpt lat="42.65062" lon="1.74036">
        <ele>2336</ele>
        <time>2017-04-13T16:29:20Z</time>
      </trkpt>
      <trkpt lat="42.65076" lon="1.74066">
        <ele>2338</ele>
        <time>2017-04-13T16:31:20Z</time>
      </trkpt>
      <trkpt lat="42.65089" lon="1.74078">
        <ele>2339</ele>
        <time>2017-04-13T16:33:20Z</time>
      </trkpt>
      <trkpt lat="42.65098" lon="1.74096">
        <ele>2336</ele>
        <time>2017-04-13T16:35:20Z</time>
      </trkpt>
      <trkpt lat="42.65125" lon="1.74133">
        <ele>2336</ele>
        <time>2017-04-13T16:37:20Z</time>
      </trkpt>
      <trkpt lat="42.65139" lon="1.74157">
        <ele>2340</ele>
        <time>2017-04-13T16:39:20Z</time>
      </trkpt>
      <trkpt lat="42.65148" lon="1.74181">
        <ele>2348</ele>
        <time>2017-04-13T16:41:20Z</time>
      </trkpt>
      <trkpt lat="42.65148" lon="1.74211">
        <ele>2354</ele>
        <time>2017-04-13T16:43:20Z</time>
      </trkpt>
      <trkpt lat="42.65157" lon="1.7423">
        <ele>2365</ele>
        <time>2017-04-13T16:45:20Z</time>
      </trkpt>
      <trkpt lat="42.65167" lon="1.74278">
        <ele>2375</ele>
        <time>2017-04-13T16:47:20Z</time>
      </trkpt>
      <trkpt lat="42.6518" lon="1.74296">
        <ele>2375</ele>
        <time>2017-04-13T16:49:20Z</time>
      </trkpt>
      <trkpt lat="42.65194" lon="1.74308">
        <ele>2376</ele>
        <time>2017-04-13T16:51:20Z</time>
      </trkpt>
      <trkpt lat="42.65212" lon="1.74308">
        <ele>2378</ele>
        <time>2017-04-13T16:53:20Z</time>
      </trkpt>
      <trkpt lat="42.6523" lon="1.7432">
        <ele>2383</ele>
        <time>2017-04-13T16:55:20Z</time>
      </trkpt>
      <trkpt lat="42.65248" lon="1.74326">
        <ele>2388</ele>
        <time>2017-04-13T16:57:20Z</time>
      </trkpt>
      <trkpt lat="42.65257" lon="1.7435">
        <ele>2380</ele>
        <time>2017-04-13T16:59:20Z</time>
      </trkpt>
      <trkpt lat="42.65261" lon="1.74375">
        <ele>2371</ele>
        <time>2017-04-13T17:01:20Z</time>
      </trkpt>
      <trkpt lat="42.65266" lon="1.74393">
        <ele>2365</ele>
        <time>2017-04-13T17:03:20Z</time>
      </trkpt>
      <trkpt lat="42.65271" lon="1.74417">
        <ele>2358</ele>
        <time>2017-04-13T17:05:20Z</time>
      </trkpt>
      <trkpt lat="42.65289" lon="1.74441">
        <ele>2350</ele>
        <time>2017-04-13T17:07:20Z</time>
      </trkpt>
      <trkpt lat="42.65338" lon="1.74489">
        <ele>2352</ele>
        <time>2017-04-13T17:09:20Z</time>
      </trkpt>
      <trkpt lat="42.65347" lon="1.74514">
        <ele>2351</ele>
        <time>2017-04-13T17:11:20Z</time>
      </trkpt>
      <trkpt lat="42.65361" lon="1.74532">
        <ele>2353</ele>
        <time>2017-04-13T17:13:20Z</time>
      </trkpt>
      <trkpt lat="42.65388" lon="1.74556">
        <ele>2359</ele>
        <time>2017-04-13T17:15:20Z</time>
      </trkpt>
      <trkpt lat="42.65402" lon="1.74574">
        <ele>2363</ele>
        <time>2017-04-13T17:17:20Z</time>
      </trkpt>
      <trkpt lat="42.6542" lon="1.74592">
        <ele>2368</ele>
        <time>2017-04-13T17:19:20Z</time>
      </trkpt>
      <trkpt lat="42.65438" lon="1.74598">
        <ele>2371</ele>
        <time>2017-04-13T17:21:20Z</time>
      </trkpt>
      <trkpt lat="42.65478" lon="1.74597">
        <ele>2380</ele>
        <time>2017-04-13T17:23:20Z</time>
      </trkpt>
      <trkpt lat="42.65496" lon="1.74585">
        <ele>2389</ele>
        <time>2017-04-13T17:25:20Z</time>
      </trkpt>
      <trkpt lat="42.65514" lon="1.74579">
        <ele>2393</ele>
        <time>2017-04-13T17:27:20Z</time>
      </trkpt>
      <trkpt lat="42.65527" lon="1.74585">
        <ele>2396</ele>
        <time>2017-04-13T17:29:20Z</time>
      </trkpt>
      <trkpt lat="42.65541" lon="1.74597">
        <ele>2393</ele>
        <time>2017-04-13T17:31:20Z</time>
      </trkpt>
      <trkpt lat="42.65541" lon="1.74591">
        <ele>2396</ele>
        <time>2017-04-13T17:33:20Z</time>
      </trkpt>
      <trkpt lat="42.65581" lon="1.74554">
        <ele>2403</ele>
        <time>2017-04-13T17:35:20Z</time>
      </trkpt>
      <trkpt lat="42.65595" lon="1.74548">
        <ele>2406</ele>
        <time>2017-04-13T17:37:20Z</time>
      </trkpt>
      <trkpt lat="42.65613" lon="1.74535">
        <ele>2409</ele>
        <time>2017-04-13T17:39:20Z</time>
      </trkpt>
      <trkpt lat="42.65639" lon="1.74523">
        <ele>2415</ele>
        <time>2017-04-13T17:41:20Z</time>
      </trkpt>
      <trkpt lat="42.65657" lon="1.7451">
        <ele>2417</ele>
        <time>2017-04-13T17:43:20Z</time>
      </trkpt>
      <trkpt lat="42.65666" lon="1.74486">
        <ele>2409</ele>
        <time>2017-04-13T17:45:20Z</time>
      </trkpt>
      <trkpt lat="42.6576" lon="1.74485">
        <ele>2371</ele>
        <time>2017-04-13T17:47:20Z</time>
      </trkpt>
      <trkpt lat="42.65778" lon="1.74479">
        <ele>2361</ele>
        <time>2017-04-13T17:49:20Z</time>
      </trkpt>
      <trkpt lat="42.65814" lon="1.74454">
        <ele>2340</ele>
        <time>2017-04-13T17:51:20Z</time>
      </trkpt>
      <trkpt lat="42.65841" lon="1.74429">
        <ele>2326</ele>
        <time>2017-04-13T17:53:20Z</time>
      </trkpt>
      <trkpt lat="42.6585" lon="1.74411">
        <ele>2321</ele>
        <time>2017-04-13T17:55:20Z</time>
      </trkpt>
      <trkpt lat="42.65868" lon="1.74399">
        <ele>2318</ele>
        <time>2017-04-13T17:57:20Z</time>
      </trkpt>
      <trkpt lat="42.65881" lon="1.7438">
        <ele>2318</ele>
        <time>2017-04-13T17:59:20Z</time>
      </trkpt>
      <trkpt lat="42.65894" lon="1.74356">
        <ele>2321</ele>
        <time>2017-04-13T18:01:20Z</time>
      </trkpt>
      <trkpt lat="42.65908" lon="1.7435">
        <ele>2321</ele>
        <time>2017-04-13T18:03:20Z</time>
      </trkpt>
      <trkpt lat="42.65926" lon="1.74337">
        <ele>2323</ele>
        <time>2017-04-13T18:05:20Z</time>
      </trkpt>
      <trkpt lat="42.65939" lon="1.74319">
        <ele>2323</ele>
        <time>2017-04-13T18:07:20Z</time>
      </trkpt>
      <trkpt lat="42.6602" lon="1.74318">
        <ele>2303</ele>
        <time>2017-04-13T18:09:20Z</time>
      </trkpt>
      <trkpt lat="42.6602" lon="1.74312">
        <ele>2305</ele>
        <time>2017-04-13T18:11:20Z</time>
      </trkpt>
      <trkpt lat="42.66038" lon="1.74312">
        <ele>2297</ele>
        <time>2017-04-13T18:13:20Z</time>
      </trkpt>
      <trkpt lat="42.66056" lon="1.74306">
        <ele>2292</ele>
        <time>2017-04-13T18:15:20Z</time>
      </trkpt>
      <trkpt lat="42.66069" lon="1.74293">
        <ele>2291</ele>
        <time>2017-04-13T18:17:20Z</time>
      </trkpt>
      <trkpt lat="42.66087" lon="1.74287">
        <ele>2286</ele>
        <time>2017-04-13T18:19:20Z</time>
      </trkpt>
      <trkpt lat="42.66105" lon="1.74287">
        <ele>2280</ele>
        <time>2017-04-13T18:21:20Z</time>
      </trkpt>
      <trkpt lat="42.66141" lon="1.74274">
        <ele>2273</ele>
        <time>2017-04-13T18:23:20Z</time>
      </trkpt>
      <trkpt lat="42.66271" lon="1.74273">
        <ele>2238</ele>
        <time>2017-04-13T18:25:20Z</time>
      </trkpt>
      <trkpt lat="42.66294" lon="1.74267">
        <ele>2238</ele>
        <time>2017-04-13T18:27:20Z</time>
      </trkpt>
      <trkpt lat="42.66311" lon="1.74266">
        <ele>2236</ele>
        <time>2017-04-13T18:29:20Z</time>
      </trkpt>
      <trkpt lat="42.66325" lon="1.74254">
        <ele>2240</ele>
        <time>2017-04-13T18:31:20Z</time>
      </trkpt>
      <trkpt lat="42.66347" lon="1.74242">
        <ele>2246</ele>
        <time>2017-04-13T18:33:20Z</time>
      </trkpt>
      <trkpt lat="42.6637" lon="1.74235">
        <ele>2249</ele>
        <time>2017-04-13T18:35:20Z</time>
      </trkpt>
      <trkpt lat="42.66388" lon="1.74223">
        <ele>2255</ele>
        <time>2017-04-13T18:37:20Z</time>
      </trkpt>
      <trkpt lat="42.66406" lon="1.74223">
        <ele>2254</ele>
        <time>2017-04-13T18:39:20Z</time>
      </trkpt>
      <trkpt lat="42.66419" lon="1.74217">
        <ele>2257</ele>
        <time>2017-04-13T18:41:20Z</time>
      </trkpt>
      <trkpt lat="42.66495" lon="1.74216">
        <ele>2264</ele>
        <time>2017-04-13T18:43:20Z</time>
      </trkpt>
      <trkpt lat="42.66513" lon="1.74222">
        <ele>2263</ele>
        <time>2017-04-13T18:45:20Z</time>
      </trkpt>
      <trkpt lat="42.66531" lon="1.74222">
        <ele>2265</ele>
        <time>2017-04-13T18:47:20Z</time>
      </trkpt>
      <trkpt lat="42.66554" lon="1.74227">
        <ele>2267</ele>
        <time>2017-04-13T18:49:20Z</time>
      </trkpt>
      <trkpt lat="42.6659" lon="1.74227">
        <ele>2271</ele>
        <time>2017-04-13T18:51:20Z</time>
      </trkpt>
      <trkpt lat="42.66626" lon="1.74239">
        <ele>2270</ele>
        <time>2017-04-13T18:53:20Z</time>
      </trkpt>
      <trkpt lat="42.66644" lon="1.74251">
        <ele>2272</ele>
        <time>2017-04-13T18:55:20Z</time>
      </trkpt>
      <trkpt lat="42.66657" lon="1.74263">
        <ele>2270</ele>
        <time>2017-04-13T18:57:20Z</time>
      </trkpt>
      <trkpt lat="42.66671" lon="1.74281">
        <ele>2269</ele>
        <time>2017-04-13T18:59:20Z</time>
      </trkpt>
      <trkpt lat="42.6672" lon="1.74323">
        <ele>2267</ele>
        <time>2017-04-13T19:01:20Z</time>
      </trkpt>
      <trkpt lat="42.6673" lon="1.74341">
        <ele>2267</ele>
        <time>2017-04-13T19:03:20Z</time>
      </trkpt>
      <trkpt lat="42.6677" lon="1.74396">
        <ele>2265</ele>
        <time>2017-04-13T19:05:20Z</time>
      </trkpt>
      <trkpt lat="42.66784" lon="1.74408">
        <ele>2264</ele>
        <time>2017-04-13T19:07:20Z</time>
      </trkpt>
      <trkpt lat="42.66797" lon="1.74414">
        <ele>2264</ele>
        <time>2017-04-13T19:09:20Z</time>
      </trkpt>
      <trkpt lat="42.66815" lon="1.74426">
        <ele>2263</ele>
        <time>2017-04-13T19:11:20Z</time>
      </trkpt>
      <trkpt lat="42.66829" lon="1.74438">
        <ele>2263</ele>
        <time>2017-04-13T19:13:20Z</time>
      </trkpt>
      <trkpt lat="42.66847" lon="1.74444">
        <ele>2258</ele>
        <time>2017-04-13T19:15:20Z</time>
      </trkpt>
      <trkpt lat="42.66865" lon="1.74443">
        <ele>2252</ele>
        <time>2017-04-13T19:17:20Z</time>
      </trkpt>
      <trkpt lat="42.66883" lon="1.74461">
        <ele>2248</ele>
        <time>2017-04-13T19:19:20Z</time>
      </trkpt>
      <trkpt lat="42.66892" lon="1.74486">
        <ele>2249</ele>
        <time>2017-04-13T19:21:20Z</time>
      </trkpt>
      <trkpt lat="42.66901" lon="1.74504">
        <ele>2248</ele>
        <time>2017-04-13T19:23:20Z</time>
      </trkpt>
      <trkpt lat="42.66915" lon="1.74522">
        <ele>2241</ele>
        <time>2017-04-13T19:25:20Z</time>
      </trkpt>
      <trkpt lat="42.66933" lon="1.74534">
        <ele>2235</ele>
        <time>2017-04-13T19:27:20Z</time>
      </trkpt>
      <trkpt lat="42.66959" lon="1.74509">
        <ele>2236</ele>
        <time>2017-04-13T19:29:20Z</time>
      </trkpt>
      <trkpt lat="42.66968" lon="1.74485">
        <ele>2231</ele>
        <time>2017-04-13T19:31:20Z</time>
      </trkpt>
      <trkpt lat="42.66982" lon="1.74473">
        <ele>2224</ele>
        <time>2017-04-13T19:33:20Z</time>
      </trkpt>
      <trkpt lat="42.66995" lon="1.74466">
        <ele>2218</ele>
        <time>2017-04-13T19:35:20Z</time>
      </trkpt>
      <trkpt lat="42.6699" lon="1.7443">
        <ele>2207</ele>
        <time>2017-04-13T19:37:20Z</time>
      </trkpt>
      <trkpt lat="42.6699" lon="1.74406">
        <ele>2201</ele>
        <time>2017-04-13T19:39:20Z</time>
      </trkpt>
      <trkpt lat="42.66986" lon="1.74381">
        <ele>2200</ele>
        <time>2017-04-13T19:41:20Z</time>
      </trkpt>
      <trkpt lat="42.66985" lon="1.74241">
        <ele>2209</ele>
        <time>2017-04-13T19:43:20Z</time>
      </trkpt>
      <trkpt lat="42.66994" lon="1.74217">
        <ele>2209</ele>
        <time>2017-04-13T19:45:20Z</time>
      </trkpt>
      <trkpt lat="42.66998" lon="1.74193">
        <ele>2210</ele>
        <time>2017-04-13T19:47:20Z</time>
      </trkpt>
      <trkpt lat="42.67011" lon="1.74168">
        <ele>2209</ele>
        <time>2017-04-13T19:49:20Z</time>
      </trkpt>
      <trkpt lat="42.67025" lon="1.7415">
        <ele>2204</ele>
        <time>2017-04-13T19:51:20Z</time>
      </trkpt>
      <trkpt lat="42.67034" lon="1.74125">
        <ele>2202</ele>
        <time>2017-04-13T19:53:20Z</time>
      </trkpt>
      <trkpt lat="42.6706" lon="1.74088">
        <ele>2199</ele>
        <time>2017-04-13T19:55:20Z</time>
      </trkpt>
      <trkpt lat="42.67078" lon="1.74076">
        <ele>2197</ele>
        <time>2017-04-13T19:57:20Z</time>
      </trkpt>
      <trkpt lat="42.67114" lon="1.74045">
        <ele>2190</ele>
        <time>2017-04-13T19:59:20Z</time>
      </trkpt>
      <trkpt lat="42.67132" lon="1.74033">
        <ele>2186</ele>
        <time>2017-04-13T20:01:20Z</time>
      </trkpt>
      <trkpt lat="42.67168" lon="1.74014">
        <ele>2180</ele>
        <time>2017-04-13T20:03:20Z</time>
      </trkpt>
      <trkpt lat="42.67186" lon="1.74014">
        <ele>2170</ele>
        <time>2017-04-13T20:05:20Z</time>
      </trkpt>
      <trkpt lat="42.67204" lon="1.74008">
        <ele>2161</ele>
        <time>2017-04-13T20:07:20Z</time>
      </trkpt>
      <trkpt lat="42.67217" lon="1.73989">
        <ele>2155</ele>
        <time>2017-04-13T20:09:20Z</time>
      </trkpt>
      <trkpt lat="42.67244" lon="1.73934">
        <ele>2141</ele>
        <time>2017-04-13T20:11:20Z</time>
      </trkpt>
      <trkpt lat="42.67257" lon="1.73904">
        <ele>2133</ele>
        <time>2017-04-13T20:13:20Z</time>
      </trkpt>
      <trkpt lat="42.67266" lon="1.73879">
        <ele>2125</ele>
        <time>2017-04-13T20:15:20Z</time>
      </trkpt>
      <trkpt lat="42.67265" lon="1.73721">
        <ele>2097</ele>
        <time>2017-04-13T20:17:20Z</time>
      </trkpt>
      <trkpt lat="42.6726" lon="1.73697">
        <ele>2094</ele>
        <time>2017-04-13T20:19:20Z</time>
      </trkpt>
      <trkpt lat="42.6726" lon="1.73673">
        <ele>2088</ele>
        <time>2017-04-13T20:21:20Z</time>
      </trkpt>
      <trkpt lat="42.67255" lon="1.73648">
        <ele>2086</ele>
        <time>2017-04-13T20:23:20Z</time>
      </trkpt>
      <trkpt lat="42.67255" lon="1.73575">
        <ele>2076</ele>
        <time>2017-04-13T20:25:20Z</time>
      </trkpt>
      <trkpt lat="42.6725" lon="1.73551">
        <ele>2078</ele>
        <time>2017-04-13T20:27:20Z</time>
      </trkpt>
      <trkpt lat="42.6725" lon="1.73502">
        <ele>2078</ele>
        <time>2017-04-13T20:29:20Z</time>
      </trkpt>
      <trkpt lat="42.67259" lon="1.73466">
        <ele>2081</ele>
        <time>2017-04-13T20:31:20Z</time>
      </trkpt>
      <trkpt lat="42.67263" lon="1.73441">
        <ele>2084</ele>
        <time>2017-04-13T20:33:20Z</time>
      </trkpt>
      <trkpt lat="42.67259" lon="1.73417">
        <ele>2089</ele>
        <time>2017-04-13T20:35:20Z</time>
      </trkpt>
      <trkpt lat="42.67258" lon="1.73368">
        <ele>2094</ele>
        <time>2017-04-13T20:37:20Z</time>
      </trkpt>
      <trkpt lat="42.67249" lon="1.7335">
        <ele>2097</ele>
        <time>2017-04-13T20:39:20Z</time>
      </trkpt>
      <trkpt lat="42.67245" lon="1.7332">
        <ele>2097</ele>
        <time>2017-04-13T20:41:20Z</time>
      </trkpt>
      <trkpt lat="42.67236" lon="1.73302">
        <ele>2093</ele>
        <time>2017-04-13T20:43:20Z</time>
      </trkpt>
      <trkpt lat="42.67222" lon="1.73284">
        <ele>2086</ele>
        <time>2017-04-13T20:45:20Z</time>
      </trkpt>
      <trkpt lat="42.67213" lon="1.73265">
        <ele>2079</ele>
        <time>2017-04-13T20:47:20Z</time>
      </trkpt>
      <trkpt lat="42.67199" lon="1.73247">
        <ele>2068</ele>
        <time>2017-04-13T20:49:20Z</time>
      </trkpt>
      <trkpt lat="42.6719" lon="1.73229">
        <ele>2056</ele>
        <time>2017-04-13T20:51:20Z</time>
      </trkpt>
      <trkpt lat="42.67172" lon="1.73211">
        <ele>2040</ele>
        <time>2017-04-13T20:53:20Z</time>
      </trkpt>
      <trkpt lat="42.67159" lon="1.73193">
        <ele>2026</ele>
        <time>2017-04-13T20:55:20Z</time>
      </trkpt>
      <trkpt lat="42.67141" lon="1.73187">
        <ele>2016</ele>
        <time>2017-04-13T20:57:20Z</time>
      </trkpt>
      <trkpt lat="42.67123" lon="1.73175">
        <ele>2003</ele>
        <time>2017-04-13T20:59:20Z</time>
      </trkpt>
      <trkpt lat="42.67114" lon="1.73163">
        <ele>1995</ele>
        <time>2017-04-13T21:01:20Z</time>
      </trkpt>
      <trkpt lat="42.67096" lon="1.73163">
        <ele>1986</ele>
        <time>2017-04-13T21:03:20Z</time>
      </trkpt>
      <trkpt lat="42.67078" lon="1.73157">
        <ele>1976</ele>
        <time>2017-04-13T21:05:20Z</time>
      </trkpt>
      <trkpt lat="42.67028" lon="1.73115">
        <ele>1937</ele>
        <time>2017-04-13T21:07:20Z</time>
      </trkpt>
      <trkpt lat="42.67014" lon="1.73097">
        <ele>1923</ele>
        <time>2017-04-13T21:09:20Z</time>
      </trkpt>
      <trkpt lat="42.66996" lon="1.73049">
        <ele>1903</ele>
        <time>2017-04-13T21:11:20Z</time>
      </trkpt>
      <trkpt lat="42.66987" lon="1.7303">
        <ele>1896</ele>
        <time>2017-04-13T21:13:20Z</time>
      </trkpt>
      <trkpt lat="42.66982" lon="1.73006">
        <ele>1889</ele>
        <time>2017-04-13T21:15:20Z</time>
      </trkpt>
      <trkpt lat="42.66982" lon="1.72957">
        <ele>1877</ele>
        <time>2017-04-13T21:17:20Z</time>
      </trkpt>
      <trkpt lat="42.66977" lon="1.72921">
        <ele>1867</ele>
        <time>2017-04-13T21:19:20Z</time>
      </trkpt>
      <trkpt lat="42.66964" lon="1.72897">
        <ele>1859</ele>
        <time>2017-04-13T21:21:20Z</time>
      </trkpt>
      <trkpt lat="42.66955" lon="1.72879">
        <ele>1854</ele>
        <time>2017-04-13T21:23:20Z</time>
      </trkpt>
      <trkpt lat="42.66954" lon="1.7283">
        <ele>1844</ele>
        <time>2017-04-13T21:25:20Z</time>
      </trkpt>
      <trkpt lat="42.66941" lon="1.72818">
        <ele>1841</ele>
        <time>2017-04-13T21:27:20Z</time>
      </trkpt>
      <trkpt lat="42.66932" lon="1.728">
        <ele>1837</ele>
        <time>2017-04-13T21:29:20Z</time>
      </trkpt>
      <trkpt lat="42.66927" lon="1.72775">
        <ele>1834</ele>
        <time>2017-04-13T21:31:20Z</time>
      </trkpt>
      <trkpt lat="42.66887" lon="1.72788">
        <ele>1836</ele>
        <time>2017-04-13T21:33:20Z</time>
      </trkpt>
      <trkpt lat="42.66874" lon="1.72806">
        <ele>1838</ele>
        <time>2017-04-13T21:35:20Z</time>
      </trkpt>
      <trkpt lat="42.66856" lon="1.72819">
        <ele>1839</ele>
        <time>2017-04-13T21:37:20Z</time>
      </trkpt>
      <trkpt lat="42.66842" lon="1.72831">
        <ele>1839</ele>
        <time>2017-04-13T21:39:20Z</time>
      </trkpt>
      <trkpt lat="42.66824" lon="1.72837">
        <ele>1839</ele>
        <time>2017-04-13T21:41:20Z</time>
      </trkpt>
      <trkpt lat="42.66806" lon="1.72838">
        <ele>1839</ele>
        <time>2017-04-13T21:43:20Z</time>
      </trkpt>
      <trkpt lat="42.66788" lon="1.72844">
        <ele>1840</ele>
        <time>2017-04-13T21:45:20Z</time>
      </trkpt>
      <trkpt lat="42.66771" lon="1.72856">
        <ele>1840</ele>
        <time>2017-04-13T21:47:20Z</time>
      </trkpt>
      <trkpt lat="42.66721" lon="1.72881">
        <ele>1841</ele>
        <time>2017-04-13T21:49:20Z</time>
      </trkpt>
      <trkpt lat="42.66703" lon="1.72881">
        <ele>1842</ele>
        <time>2017-04-13T21:51:20Z</time>
      </trkpt>
      <trkpt lat="42.66667" lon="1.729">
        <ele>1842</ele>
        <time>2017-04-13T21:53:20Z</time>
      </trkpt>
      <trkpt lat="42.6665" lon="1.72912">
        <ele>1844</ele>
        <time>2017-04-13T21:55:20Z</time>
      </trkpt>
      <trkpt lat="42.66632" lon="1.72912">
        <ele>1848</ele>
        <time>2017-04-13T21:57:20Z</time>
      </trkpt>
      <trkpt lat="42.66609" lon="1.72931">
        <ele>1851</ele>
        <time>2017-04-13T21:59:20Z</time>
      </trkpt>
      <trkpt lat="42.66574" lon="1.72956">
        <ele>1856</ele>
        <time>2017-04-13T22:01:20Z</time>
      </trkpt>
      <trkpt lat="42.66556" lon="1.72962">
        <ele>1860</ele>
        <time>2017-04-13T22:03:20Z</time>
      </trkpt>
      <trkpt lat="42.66538" lon="1.72974">
        <ele>1863</ele>
        <time>2017-04-13T22:05:20Z</time>
      </trkpt>
      <trkpt lat="42.66497" lon="1.72987">
        <ele>1870</ele>
        <time>2017-04-13T22:07:20Z</time>
      </trkpt>
      <trkpt lat="42.66475" lon="1.72987">
        <ele>1876</ele>
        <time>2017-04-13T22:09:20Z</time>
      </trkpt>
      <trkpt lat="42.66453" lon="1.73006">
        <ele>1878</ele>
        <time>2017-04-13T22:11:20Z</time>
      </trkpt>
      <trkpt lat="42.6643" lon="1.73012">
        <ele>1883</ele>
        <time>2017-04-13T22:13:20Z</time>
      </trkpt>
      <trkpt lat="42.66372" lon="1.73013">
        <ele>1898</ele>
        <time>2017-04-13T22:15:20Z</time>
      </trkpt>
      <trkpt lat="42.66354" lon="1.73019">
        <ele>1901</ele>
        <time>2017-04-13T22:17:20Z</time>
      </trkpt>
      <trkpt lat="42.66313" lon="1.73019">
        <ele>1910</ele>
        <time>2017-04-13T22:19:20Z</time>
      </trkpt>
      <trkpt lat="42.66296" lon="1.73025">
        <ele>1912</ele>
        <time>2017-04-13T22:21:20Z</time>
      </trkpt>
      <trkpt lat="42.66219" lon="1.73026">
        <ele>1925</ele>
        <time>2017-04-13T22:23:20Z</time>
      </trkpt>
      <trkpt lat="42.66206" lon="1.73014">
        <ele>1930</ele>
        <time>2017-04-13T22:25:20Z</time>
      </trkpt>
      <trkpt lat="42.66188" lon="1.73014">
        <ele>1933</ele>
        <time>2017-04-13T22:27:20Z</time>
      </trkpt>
      <trkpt lat="42.66152" lon="1.73003">
        <ele>1940</ele>
        <time>2017-04-13T22:29:20Z</time>
      </trkpt>
      <trkpt lat="42.66116" lon="1.73003">
        <ele>1944</ele>
        <time>2017-04-13T22:31:20Z</time>
      </trkpt>
      <trkpt lat="42.66098" lon="1.72997">
        <ele>1948</ele>
        <time>2017-04-13T22:33:20Z</time>
      </trkpt>
      <trkpt lat="42.66048" lon="1.72973">
        <ele>1959</ele>
        <time>2017-04-13T22:35:20Z</time>
      </trkpt>
      <trkpt lat="42.66035" lon="1.72961">
        <ele>1964</ele>
        <time>2017-04-13T22:37:20Z</time>
      </trkpt>
      <trkpt lat="42.66017" lon="1.72955">
        <ele>1967</ele>
        <time>2017-04-13T22:39:20Z</time>
      </trkpt>
      <trkpt lat="42.65999" lon="1.72956">
        <ele>1968</ele>
        <time>2017-04-13T22:41:20Z</time>
      </trkpt>
      <trkpt lat="42.65999" lon="1.72962">
        <ele>1967</ele>
        <time>2017-04-13T22:43:20Z</time>
      </trkpt>
      <trkpt lat="42.6599" lon="1.7295">
        <ele>1973</ele>
        <time>2017-04-13T22:45:20Z</time>
      </trkpt>
      <trkpt lat="42.65855" lon="1.72951">
        <ele>2002</ele>
        <time>2017-04-13T22:47:20Z</time>
      </trkpt>
      <trkpt lat="42.65833" lon="1.72945">
        <ele>2007</ele>
        <time>2017-04-13T22:49:20Z</time>
      </trkpt>
      <trkpt lat="42.65815" lon="1.72933">
        <ele>2013</ele>
        <time>2017-04-13T22:51:20Z</time>
      </trkpt>
      <trkpt lat="42.65774" lon="1.72921">
        <ele>2022</ele>
        <time>2017-04-13T22:53:20Z</time>
      </trkpt>
      <trkpt lat="42.65756" lon="1.72909">
        <ele>2027</ele>
        <time>2017-04-13T22:55:20Z</time>
      </trkpt>
      <trkpt lat="42.65733" lon="1.72898">
        <ele>2030</ele>
        <time>2017-04-13T22:57:20Z</time>
      </trkpt>
      <trkpt lat="42.65716" lon="1.72892">
        <ele>2031</ele>
        <time>2017-04-13T22:59:20Z</time>
      </trkpt>
      <trkpt lat="42.65693" lon="1.7288">
        <ele>2035</ele>
        <time>2017-04-13T23:01:20Z</time>
      </trkpt>
      <trkpt lat="42.65612" lon="1.7285">
        <ele>2044</ele>
        <time>2017-04-13T23:03:20Z</time>
      </trkpt>
      <trkpt lat="42.65594" lon="1.7285">
        <ele>2045</ele>
        <time>2017-04-13T23:05:20Z</time>
      </trkpt>
      <trkpt lat="42.65572" lon="1.72844">
        <ele>2049</ele>
        <time>2017-04-13T23:07:20Z</time>
      </trkpt>
      <trkpt lat="42.65531" lon="1.72845">
        <ele>2053</ele>
        <time>2017-04-13T23:09:20Z</time>
      </trkpt>
      <trkpt lat="42.65491" lon="1.72833">
        <ele>2060</ele>
        <time>2017-04-13T23:11:20Z</time>
      </trkpt>
      <trkpt lat="42.65473" lon="1.72821">
        <ele>2060</ele>
        <time>2017-04-13T23:13:20Z</time>
      </trkpt>
      <trkpt lat="42.65441" lon="1.72809">
        <ele>2061</ele>
        <time>2017-04-13T23:15:20Z</time>
      </trkpt>
      <trkpt lat="42.65423" lon="1.7281">
        <ele>2061</ele>
        <time>2017-04-13T23:17:20Z</time>
      </trkpt>
      <trkpt lat="42.65374" lon="1.72792">
        <ele>2066</ele>
        <time>2017-04-13T23:19:20Z</time>
      </trkpt>
      <trkpt lat="42.65356" lon="1.7278">
        <ele>2069</ele>
        <time>2017-04-13T23:21:20Z</time>
      </trkpt>
      <trkpt lat="42.65338" lon="1.72774">
        <ele>2071</ele>
        <time>2017-04-13T23:23:20Z</time>
      </trkpt>
      <trkpt lat="42.65315" lon="1.72762">
        <ele>2073</ele>
        <time>2017-04-13T23:25:20Z</time>
      </trkpt>
      <trkpt lat="42.65297" lon="1.72756">
        <ele>2074</ele>
        <time>2017-04-13T23:27:20Z</time>
      </trkpt>
      <trkpt lat="42.65284" lon="1.72744">
        <ele>2075</ele>
        <time>2017-04-13T23:29:20Z</time>
      </trkpt>
      <trkpt lat="42.65248" lon="1.72732">
        <ele>2075</ele>
        <time>2017-04-13T23:31:20Z</time>
      </trkpt>
      <trkpt lat="42.65203" lon="1.72708">
        <ele>2076</ele>
        <time>2017-04-13T23:33:20Z</time>
      </trkpt>
      <trkpt lat="42.65176" lon="1.72697">
        <ele>2078</ele>
        <time>2017-04-13T23:35:20Z</time>
      </trkpt>
      <trkpt lat="42.65045" lon="1.72698">
        <ele>2083</ele>
        <time>2017-04-13T23:37:20Z</time>
      </trkpt>
      <trkpt lat="42.65014" lon="1.72686">
        <ele>2087</ele>
        <time>2017-04-13T23:39:20Z</time>
      </trkpt>
      <trkpt lat="42.64973" lon="1.72674">
        <ele>2096</ele>
        <time>2017-04-13T23:41:20Z</time>
      </trkpt>
      <trkpt lat="42.64893" lon="1.72675">
        <ele>2111</ele>
        <time>2017-04-13T23:43:20Z</time>
      </trkpt>
      <trkpt lat="42.64875" lon="1.72681">
        <ele>2113</ele>
        <time>2017-04-13T23:45:20Z</time>
      </trkpt>
      <trkpt lat="42.64834" lon="1.72682">
        <ele>2120</ele>
        <time>2017-04-13T23:47:20Z</time>
      </trkpt>
      <trkpt lat="42.64812" lon="1.72688">
        <ele>2125</ele>
        <time>2017-04-13T23:49:20Z</time>
      </trkpt>
      <trkpt lat="42.64794" lon="1.72701">
        <ele>2127</ele>
        <time>2017-04-13T23:51:20Z</time>
      </trkpt>
      <trkpt lat="42.64776" lon="1.72707">
        <ele>2131</ele>
        <time>2017-04-13T23:53:20Z</time>
      </trkpt>
      <trkpt lat="42.64758" lon="1.72719">
        <ele>2134</ele>
        <time>2017-04-13T23:55:20Z</time>
      </trkpt>
      <trkpt lat="42.6474" lon="1.72719">
        <ele>2139</ele>
        <time>2017-04-13T23:57:20Z</time>
      </trkpt>
      <trkpt lat="42.64727" lon="1.72732">
        <ele>2141</ele>
        <time>2017-04-13T23:59:20Z</time>
      </trkpt>
      <trkpt lat="42.64709" lon="1.72732">
        <ele>2147</ele>
        <time>2017-04-14T00:01:20Z</time>
      </trkpt>
      <trkpt lat="42.64686" lon="1.72738">
        <ele>2154</ele>
        <time>2017-04-14T00:03:20Z</time>
      </trkpt>
      <trkpt lat="42.64552" lon="1.7274">
        <ele>2218</ele>
        <time>2017-04-14T00:05:20Z</time>
      </trkpt>
      <trkpt lat="42.64534" lon="1.72758">
        <ele>2228</ele>
        <time>2017-04-14T00:07:20Z</time>
      </trkpt>
      <trkpt lat="42.64457" lon="1.72759">
        <ele>2252</ele>
        <time>2017-04-14T00:09:20Z</time>
      </trkpt>
      <trkpt lat="42.64435" lon="1.72765">
        <ele>2258</ele>
        <time>2017-04-14T00:11:20Z</time>
      </trkpt>
      <trkpt lat="42.64341" lon="1.72766">
        <ele>2262</ele>
        <time>2017-04-14T00:13:20Z</time>
      </trkpt>
      <trkpt lat="42.64323" lon="1.7276">
        <ele>2260</ele>
        <time>2017-04-14T00:15:20Z</time>
      </trkpt>
      <trkpt lat="42.64305" lon="1.7276">
        <ele>2258</ele>
        <time>2017-04-14T00:17:20Z</time>
      </trkpt>
      <trkpt lat="42.64291" lon="1.72779">
        <ele>2260</ele>
        <time>2017-04-14T00:19:20Z</time>
      </trkpt>
      <trkpt lat="42.64274" lon="1.72785">
        <ele>2260</ele>
        <time>2017-04-14T00:21:20Z</time>
      </trkpt>
      <trkpt lat="42.64238" lon="1.72785">
        <ele>2258</ele>
        <time>2017-04-14T00:23:20Z</time>
      </trkpt>
      <trkpt lat="42.6422" lon="1.72774">
        <ele>2258</ele>
        <time>2017-04-14T00:25:20Z</time>
      </trkpt>
      <trkpt lat="42.64147" lon="1.72707">
        <ele>2253</ele>
        <time>2017-04-14T00:27:20Z</time>
      </trkpt>
      <trkpt lat="42.64089" lon="1.72708">
        <ele>2255</ele>
        <time>2017-04-14T00:29:20Z</time>
      </trkpt>
      <trkpt lat="42.64071" lon="1.7272">
        <ele>2252</ele>
        <time>2017-04-14T00:31:20Z</time>
      </trkpt>
      <trkpt lat="42.64058" lon="1.72739">
        <ele>2250</ele>
        <time>2017-04-14T00:33:20Z</time>
      </trkpt>
      <trkpt lat="42.64049" lon="1.72763">
        <ele>2249</ele>
        <time>2017-04-14T00:35:20Z</time>
      </trkpt>
      <trkpt lat="42.64045" lon="1.72788">
        <ele>2250</ele>
        <time>2017-04-14T00:37:20Z</time>
      </trkpt>
      <trkpt lat="42.6404" lon="1.72824">
        <ele>2252</ele>
        <time>2017-04-14T00:39:20Z</time>
      </trkpt>
      <trkpt lat="42.6404" lon="1.72854">
        <ele>2255</ele>
        <time>2017-04-14T00:41:20Z</time>
      </trkpt>
      <trkpt lat="42.64023" lon="1.72915">
        <ele>2257</ele>
        <time>2017-04-14T00:43:20Z</time>
      </trkpt>
      <trkpt lat="42.64005" lon="1.72916">
        <ele>2253</ele>
        <time>2017-04-14T00:45:20Z</time>
      </trkpt>
      <trkpt lat="42.63991" lon="1.72904">
        <ele>2250</ele>
        <time>2017-04-14T00:47:20Z</time>
      </trkpt>
      <trkpt lat="42.63973" lon="1.72898">
        <ele>2248</ele>
        <time>2017-04-14T00:49:20Z</time>
      </trkpt>
      <trkpt lat="42.63955" lon="1.72898">
        <ele>2246</ele>
        <time>2017-04-14T00:51:20Z</time>
      </trkpt>
      <trkpt lat="42.63946" lon="1.72886">
        <ele>2244</ele>
        <time>2017-04-14T00:53:20Z</time>
      </trkpt>
      <trkpt lat="42.63933" lon="1.7288">
        <ele>2242</ele>
        <time>2017-04-14T00:55:20Z</time>
      </trkpt>
      <trkpt lat="42.63933" lon="1.72825">
        <ele>2236</ele>
        <time>2017-04-14T00:57:20Z</time>
      </trkpt>
      <trkpt lat="42.63923" lon="1.72795">
        <ele>2232</ele>
        <time>2017-04-14T00:59:20Z</time>
      </trkpt>
      <trkpt lat="42.63919" lon="1.72771">
        <ele>2228</ele>
        <time>2017-04-14T01:01:20Z</time>
      </trkpt>
      <trkpt lat="42.63914" lon="1.72752">
        <ele>2225</ele>
        <time>2017-04-14T01:03:20Z</time>
      </trkpt>
      <trkpt lat="42.6391" lon="1.72728">
        <ele>2222</ele>
        <time>2017-04-14T01:05:20Z</time>
      </trkpt>
      <trkpt lat="42.639" lon="1.72704">
        <ele>2220</ele>
        <time>2017-04-14T01:07:20Z</time>
      </trkpt>
      <trkpt lat="42.63882" lon="1.72668">
        <ele>2216</ele>
        <time>2017-04-14T01:09:20Z</time>
      </trkpt>
      <trkpt lat="42.63878" lon="1.72649">
        <ele>2214</ele>
        <time>2017-04-14T01:11:20Z</time>
      </trkpt>
      <trkpt lat="42.63896" lon="1.72661">
        <ele>2215</ele>
        <time>2017-04-14T01:13:20Z</time>
      </trkpt>
      <trkpt lat="42.63909" lon="1.72679">
        <ele>2217</ele>
        <time>2017-04-14T01:15:20Z</time>
      </trkpt>
      <trkpt lat="42.63918" lon="1.72679">
        <ele>2217</ele>
        <time>2017-04-14T01:17:20Z</time>
      </trkpt>
    </trkseg>
  </trk>
</gpx>